sensor_id;sensor_type;location;lat;lon;timestamp;temperature;humidity
6810;DHT22;3443;48.812;9.112;2023-08-12T09:56:22;30.60;99.90
6810;DHT22;3443;48.812;9.112;2023-08-12T09:58:49;30.50;99.90
6810;DHT22;3443;48.812;9.112;2023-08-12T10:01:18;30.40;99.90
6810;DHT22;3443;48.812;9.112;2023-08-12T10:03:47;30.20;99.90
6810;DHT22;3443;48.812;9.112;2023-08-12T10:06:14;30.00;99.90
6810;DHT22;3443;48.812;9.112;2023-08-12T10:08:40;29.80;99.90
6810;DHT22;3443;48.812;9.112;2023-08-12T10:11:07;29.50;99.90
6810;DHT22;3443;48.812;9.112;2023-08-12T10:13:33;29.30;99.90
6810;DHT22;3443;48.812;9.112;2023-08-12T10:16:00;29.20;99.90
6810;DHT22;3443;48.812;9.112;2023-08-12T10:18:28;29.10;99.90
6810;DHT22;3443;48.812;9.112;2023-08-12T10:20:53;29.00;99.90
6810;DHT22;3443;48.812;9.112;2023-08-12T10:23:21;28.80;99.90
6810;DHT22;3443;48.812;9.112;2023-08-12T10:25:49;28.70;99.90
6810;DHT22;3443;48.812;9.112;2023-08-12T10:28:19;28.70;99.90
6810;DHT22;3443;48.812;9.112;2023-08-12T10:30:45;28.70;99.90
6810;DHT22;3443;48.812;9.112;2023-08-12T10:33:10;28.70;99.90
6810;DHT22;3443;48.812;9.112;2023-08-12T10:35:49;28.70;99.90
6810;DHT22;3443;48.812;9.112;2023-08-12T10:38:20;28.80;99.90
6810;DHT22;3443;48.812;9.112;2023-08-12T10:40:47;29.00;99.90
6810;DHT22;3443;48.812;9.112;2023-08-12T10:43:13;29.20;99.90
6810;DHT22;3443;48.812;9.112;2023-08-12T10:45:52;29.40;99.90
6810;DHT22;3443;48.812;9.112;2023-08-12T10:48:25;29.40;99.90
6810;DHT22;3443;48.812;9.112;2023-08-12T10:50:58;29.20;99.90
6810;DHT22;3443;48.812;9.112;2023-08-12T10:53:32;29.10;99.90
6810;DHT22;3443;48.812;9.112;2023-08-12T10:56:01;29.20;99.90
6810;DHT22;3443;48.812;9.112;2023-08-12T10:58:49;29.30;99.90
6810;DHT22;3443;48.812;9.112;2023-08-12T11:01:17;29.40;99.90
6810;DHT22;3443;48.812;9.112;2023-08-12T11:03:43;29.80;99.90
6810;DHT22;3443;48.812;9.112;2023-08-12T11:06:12;30.10;99.90
6810;DHT22;3443;48.812;9.112;2023-08-12T11:08:51;29.80;99.90
6810;DHT22;3443;48.812;9.112;2023-08-12T11:11:22;29.70;99.90
6810;DHT22;3443;48.812;9.112;2023-08-12T11:13:56;29.80;99.90
6810;DHT22;3443;48.812;9.112;2023-08-12T11:16:34;30.00;99.90
6810;DHT22;3443;48.812;9.112;2023-08-12T11:19:00;30.10;99.90
6810;DHT22;3443;48.812;9.112;2023-08-12T11:21:26;30.30;99.90
6810;DHT22;3443;48.812;9.112;2023-08-12T11:23:54;30.10;99.90
6810;DHT22;3443;48.812;9.112;2023-08-12T11:26:23;29.80;99.90
6810;DHT22;3443;48.812;9.112;2023-08-12T11:28:49;29.70;99.90
6810;DHT22;3443;48.812;9.112;2023-08-12T11:31:15;29.60;99.90
6810;DHT22;3443;48.812;9.112;2023-08-12T11:33:41;29.60;99.90
6810;DHT22;3443;48.812;9.112;2023-08-12T11:36:07;29.70;99.90
6810;DHT22;3443;48.812;9.112;2023-08-12T11:38:32;30.00;99.90
6810;DHT22;3443;48.812;9.112;2023-08-12T11:41:03;30.20;99.90
6810;DHT22;3443;48.812;9.112;2023-08-12T11:43:29;30.70;99.90
6810;DHT22;3443;48.812;9.112;2023-08-12T11:45:57;30.80;99.90
6810;DHT22;3443;48.812;9.112;2023-08-12T12:03:01;27.80;99.90
6810;DHT22;3443;48.812;9.112;2023-08-12T12:05:28;27.50;99.90
6810;DHT22;3443;48.812;9.112;2023-08-12T12:10:30;26.70;99.90
6810;DHT22;3443;48.812;9.112;2023-08-12T12:22:42;25.90;99.90
6810;DHT22;3443;48.812;9.112;2023-08-12T12:25:13;25.80;99.90
6810;DHT22;3443;48.812;9.112;2023-08-12T12:30:08;25.30;99.90
6810;DHT22;3443;48.812;9.112;2023-08-12T12:35:03;23.30;99.90
6810;DHT22;3443;48.812;9.112;2023-08-12T12:42:21;22.90;99.90
6810;DHT22;3443;48.812;9.112;2023-08-12T12:44:47;23.20;99.90
6810;DHT22;3443;48.812;9.112;2023-08-12T12:47:16;23.50;99.90
6810;DHT22;3443;48.812;9.112;2023-08-12T12:49:44;23.70;99.90
6810;DHT22;3443;48.812;9.112;2023-08-12T12:54:35;24.10;99.90
6810;DHT22;3443;48.812;9.112;2023-08-12T12:57:01;24.30;99.90
6810;DHT22;3443;48.812;9.112;2023-08-12T12:59:27;24.30;99.90
6810;DHT22;3443;48.812;9.112;2023-08-12T13:06:45;24.30;99.90
6810;DHT22;3443;48.812;9.112;2023-08-12T13:09:11;24.50;99.90
6810;DHT22;3443;48.812;9.112;2023-08-12T13:11:37;24.70;99.90
6810;DHT22;3443;48.812;9.112;2023-08-12T13:14:03;24.70;99.90
6810;DHT22;3443;48.812;9.112;2023-08-12T13:16:29;24.70;99.90
6810;DHT22;3443;48.812;9.112;2023-08-12T13:18:55;25.00;99.90
6810;DHT22;3443;48.812;9.112;2023-08-12T13:21:24;25.00;99.90
6810;DHT22;3443;48.812;9.112;2023-08-12T13:23:49;24.80;99.90
6810;DHT22;3443;48.812;9.112;2023-08-12T13:26:15;24.90;99.90
6810;DHT22;3443;48.812;9.112;2023-08-12T13:28:41;24.90;99.90
6810;DHT22;3443;48.812;9.112;2023-08-12T13:33:33;24.80;99.90
6810;DHT22;3443;48.812;9.112;2023-08-12T13:35:59;24.90;99.90
6810;DHT22;3443;48.812;9.112;2023-08-12T13:38:24;24.80;99.90
6810;DHT22;3443;48.812;9.112;2023-08-12T13:43:16;24.80;99.90
